Time;durP1;ratioP1;P1;durP2;ratioP2;P2;SDS_P1;SDS_P2;PMS_P1;PMS_P2;Temp;Humidity;BMP_temperature;BMP_pressure;BME280_temperature;BME280_humidity;BME280_pressure;Samples;Min_cycle;Max_cycle;Signal;HPM_P1;HPM_P2
2022/11/25 00:00:37;;;;;;;8.35;5.38;;;;;;;;;;10491269;28;20032;-65
2022/11/25 00:05:38;;;;;;;9.90;5.40;;;;;;;;;;10490589;28;20020;-65
2022/11/25 00:10:39;;;;;;;9.05;5.63;;;;;;;;;;10489618;28;20035;-65
2022/11/25 00:15:39;;;;;;;12.93;5.70;;;;;;;;;;10489170;28;20033;-65
2022/11/25 00:20:40;;;;;;;10.93;5.88;;;;;;;;;;10489872;28;20029;-65
2022/11/25 00:25:41;;;;;;;10.27;5.60;;;;;;;;;;10488825;28;20086;-66
2022/11/25 00:30:43;;;;;;;9.00;5.38;;;;;;;;;;10489893;28;20408;-66
2022/11/25 00:35:44;;;;;;;7.13;4.97;;;;;;;;;;10489781;28;20037;-66
2022/11/25 00:44:34;;;;;;;11.63;5.57;;;;;;;;;;10491046;28;20021;-66
2022/11/25 00:46:05;;;;;;;8.20;4.88;;;;;;;;;;10490273;28;20113;-65
2022/11/25 00:51:06;;;;;;;9.25;5.63;;;;;;;;;;10490112;28;20066;-64
2022/11/25 00:56:12;;;;;;;9.30;5.40;;;;;;;;;;10489062;28;20028;-64
2022/11/25 01:01:13;;;;;;;7.78;5.43;;;;;;;;;;10488165;28;20459;-64
2022/11/25 01:06:13;;;;;;;8.18;5.18;;;;;;;;;;10488399;28;20067;-64
2022/11/25 01:11:17;;;;;;;7.90;4.95;;;;;;;;;;10488178;28;20054;-64
2022/11/25 01:16:19;;;;;;;9.25;5.03;;;;;;;;;;10487110;28;20179;-65
2022/11/25 01:21:24;;;;;;;6.35;4.65;;;;;;;;;;10487002;28;20028;-65
2022/11/25 01:26:24;;;;;;;7.75;4.85;;;;;;;;;;10488498;28;20024;-65
2022/11/25 01:31:29;;;;;;;10.93;5.80;;;;;;;;;;10486480;28;20040;-65
2022/11/25 01:36:30;;;;;;;9.05;4.82;;;;;;;;;;10488621;28;20040;-65
2022/11/25 01:41:33;;;;;;;15.10;4.72;;;;;;;;;;10488693;28;20028;-65
2022/11/25 01:46:43;;;;;;;7.28;4.72;;;;;;;;;;10488908;28;20078;-65
2022/11/25 01:51:56;;;;;;;6.47;4.45;;;;;;;;;;10488887;28;20039;-65
2022/11/25 01:57:03;;;;;;;6.32;4.40;;;;;;;;;;10490091;28;20035;-64
2022/11/25 02:02:04;;;;;;;8.43;4.82;;;;;;;;;;10473357;28;20027;-64
2022/11/25 02:07:19;;;;;;;7.07;4.60;;;;;;;;;;10487701;28;20107;-65
2022/11/25 02:12:20;;;;;;;6.32;4.43;;;;;;;;;;10477443;28;20025;-65
2022/11/25 02:17:21;;;;;;;7.75;4.30;;;;;;;;;;10477513;28;20039;-65
2022/11/25 02:22:50;;;;;;;6.75;4.50;;;;;;;;;;10478545;28;20021;-64
2022/11/25 02:28:09;;;;;;;7.05;4.40;;;;;;;;;;10480131;28;20030;-66
2022/11/25 02:33:10;;;;;;;9.13;4.63;;;;;;;;;;10487638;28;20049;-65
2022/11/25 02:38:15;;;;;;;6.38;4.00;;;;;;;;;;10495588;28;20040;-65
2022/11/25 02:43:16;;;;;;;8.43;4.57;;;;;;;;;;10478482;28;20474;-64
2022/11/25 02:48:17;;;;;;;5.72;4.22;;;;;;;;;;10495769;28;20033;-64
2022/11/25 02:53:19;;;;;;;10.02;4.40;;;;;;;;;;10495436;28;20426;-64
2022/11/25 02:58:20;;;;;;;7.85;4.43;;;;;;;;;;10494308;28;20021;-64
2022/11/25 03:03:20;;;;;;;7.10;3.80;;;;;;;;;;10496187;28;20380;-63
2022/11/25 03:08:21;;;;;;;7.03;4.38;;;;;;;;;;10493266;28;20033;-63
2022/11/25 03:13:22;;;;;;;7.50;4.80;;;;;;;;;;10493974;28;20160;-63
2022/11/25 03:18:22;;;;;;;6.13;4.25;;;;;;;;;;10494222;28;20476;-63
2022/11/25 03:23:24;;;;;;;6.03;4.07;;;;;;;;;;10494579;28;20025;-63
2022/11/25 03:28:24;;;;;;;7.18;4.38;;;;;;;;;;10501624;22;20049;-62
2022/11/25 03:33:25;;;;;;;7.78;4.47;;;;;;;;;;10459789;28;20029;-61
2022/11/25 03:38:25;;;;;;;6.47;4.45;;;;;;;;;;10456924;28;20037;-62
2022/11/25 03:43:26;;;;;;;6.32;4.45;;;;;;;;;;10453032;28;20080;-61
2022/11/25 03:48:27;;;;;;;6.28;4.38;;;;;;;;;;10452765;28;20110;-63
2022/11/25 03:53:27;;;;;;;7.18;4.47;;;;;;;;;;10453472;28;20078;-62
2022/11/25 03:58:28;;;;;;;5.00;4.07;;;;;;;;;;10452588;28;20033;-63
2022/11/25 04:03:29;;;;;;;6.85;4.07;;;;;;;;;;10452048;28;20021;-62
2022/11/25 04:08:30;;;;;;;4.95;4.20;;;;;;;;;;10450079;28;20413;-63
2022/11/25 04:13:30;;;;;;;5.65;3.92;;;;;;;;;;10450520;28;20028;-62
2022/11/25 04:18:31;;;;;;;5.63;3.92;;;;;;;;;;10450014;28;20032;-62
2022/11/25 04:23:31;;;;;;;6.07;4.05;;;;;;;;;;10449684;28;20480;-60
2022/11/25 04:28:32;;;;;;;5.82;3.97;;;;;;;;;;10448653;28;20069;-61
2022/11/25 04:33:33;;;;;;;4.80;3.88;;;;;;;;;;10448896;28;20074;-62
2022/11/25 04:38:33;;;;;;;6.07;4.25;;;;;;;;;;10449107;28;20379;-61
2022/11/25 04:43:34;;;;;;;6.18;3.97;;;;;;;;;;10449644;28;20037;-62
2022/11/25 04:48:34;;;;;;;5.32;3.92;;;;;;;;;;10450349;28;20021;-62
2022/11/25 04:53:35;;;;;;;5.25;3.90;;;;;;;;;;10450320;28;20021;-61
2022/11/25 05:03:55;;;;;;;6.00;4.03;;;;;;;;;;10448742;28;20033;-61
2022/11/25 05:08:55;;;;;;;9.60;4.22;;;;;;;;;;10449590;28;20025;-61
2022/11/25 05:13:56;;;;;;;4.75;3.75;;;;;;;;;;10450531;28;20408;-61
2022/11/25 05:18:56;;;;;;;6.05;4.30;;;;;;;;;;10448565;28;20491;-62
2022/11/25 05:23:57;;;;;;;5.00;3.80;;;;;;;;;;10449667;28;20029;-62
2022/11/25 05:28:57;;;;;;;5.68;3.90;;;;;;;;;;10448350;28;20049;-61
2022/11/25 05:34:02;;;;;;;6.15;3.67;;;;;;;;;;10449858;28;20028;-61
2022/11/25 05:39:03;;;;;;;6.63;4.10;;;;;;;;;;10447960;28;20430;-62
2022/11/25 05:44:04;;;;;;;6.57;3.65;;;;;;;;;;10447794;28;20025;-62
2022/11/25 05:49:04;;;;;;;5.03;3.45;;;;;;;;;;10446346;28;20025;-63
2022/11/25 05:54:05;;;;;;;6.35;3.53;;;;;;;;;;10449245;28;20028;-63
2022/11/25 05:59:14;;;;;;;7.10;4.05;;;;;;;;;;10449006;28;20055;-63
2022/11/25 06:04:15;;;;;;;4.95;3.65;;;;;;;;;;10447233;28;20215;-62
2022/11/25 06:09:15;;;;;;;5.22;3.53;;;;;;;;;;10448240;28;20227;-61
2022/11/25 06:14:18;;;;;;;4.97;3.30;;;;;;;;;;10449021;28;20052;-62
2022/11/25 06:19:19;;;;;;;7.57;3.67;;;;;;;;;;10447705;28;20036;-62
2022/11/25 06:24:20;;;;;;;4.95;3.63;;;;;;;;;;10448897;28;20032;-64
2022/11/25 06:29:20;;;;;;;6.72;3.53;;;;;;;;;;10445677;28;20064;-62
2022/11/25 06:34:21;;;;;;;6.65;3.92;;;;;;;;;;10447246;28;20082;-62
2022/11/25 06:39:21;;;;;;;10.20;4.03;;;;;;;;;;10447268;28;20025;-63
2022/11/25 06:44:22;;;;;;;13.20;4.53;;;;;;;;;;10446670;28;20021;-63
2022/11/25 06:49:22;;;;;;;7.88;4.93;;;;;;;;;;10446550;28;20392;-63
2022/11/25 06:54:23;;;;;;;7.43;5.00;;;;;;;;;;10445600;28;20419;-62
2022/11/25 06:59:24;;;;;;;13.82;4.72;;;;;;;;;;10452419;28;20400;-63
2022/11/25 07:04:24;;;;;;;9.30;5.00;;;;;;;;;;10453337;28;20029;-62
2022/11/25 07:09:25;;;;;;;11.93;4.68;;;;;;;;;;10389470;23;20190;-65
2022/11/25 07:14:25;;;;;;;12.57;4.68;;;;;;;;;;10454130;28;20028;-65
2022/11/25 07:19:35;;;;;;;10.80;5.47;;;;;;;;;;10454769;28;20025;-65
2022/11/25 07:24:42;;;;;;;9.30;4.60;;;;;;;;;;10454482;28;20117;-64
2022/11/25 07:29:57;;;;;;;7.68;4.82;;;;;;;;;;10454257;28;20109;-64
2022/11/25 07:34:58;;;;;;;10.35;4.60;;;;;;;;;;10454386;28;20025;-64
2022/11/25 07:39:58;;;;;;;13.23;4.45;;;;;;;;;;10454369;28;20041;-64
2022/11/25 07:44:59;;;;;;;13.60;4.68;;;;;;;;;;10454307;28;20036;-64
2022/11/25 07:50:00;;;;;;;6.47;4.88;;;;;;;;;;10453668;28;20025;-64
2022/11/25 07:55:00;;;;;;;6.97;4.80;;;;;;;;;;10453494;28;20017;-64
2022/11/25 08:00:01;;;;;;;5.95;4.45;;;;;;;;;;10453153;28;20036;-64
2022/11/25 08:05:02;;;;;;;8.50;4.57;;;;;;;;;;10453127;28;20025;-64
2022/11/25 08:10:03;;;;;;;6.68;4.07;;;;;;;;;;10452884;28;20048;-64
2022/11/25 08:15:04;;;;;;;7.07;4.50;;;;;;;;;;10453083;28;20523;-64
2022/11/25 08:20:05;;;;;;;7.97;4.25;;;;;;;;;;10451986;28;20082;-64
2022/11/25 08:25:06;;;;;;;8.82;4.65;;;;;;;;;;10452164;28;20043;-64
2022/11/25 08:30:08;;;;;;;5.63;4.10;;;;;;;;;;10452520;28;20039;-64
2022/11/25 08:35:08;;;;;;;6.82;4.05;;;;;;;;;;10453212;28;20056;-64
2022/11/25 08:40:10;;;;;;;8.23;4.55;;;;;;;;;;10451932;28;20052;-64
2022/11/25 08:45:11;;;;;;;10.52;4.30;;;;;;;;;;10450752;28;20131;-64
2022/11/25 08:50:13;;;;;;;4.75;3.80;;;;;;;;;;10450680;28;20106;-64
2022/11/25 08:55:14;;;;;;;7.80;4.28;;;;;;;;;;10450671;28;20464;-64
2022/11/25 09:00:15;;;;;;;5.72;3.90;;;;;;;;;;10450643;28;20040;-64
2022/11/25 09:05:16;;;;;;;5.43;4.00;;;;;;;;;;10450665;28;20029;-64
2022/11/25 09:10:17;;;;;;;9.80;4.60;;;;;;;;;;10450373;28;20496;-64
2022/11/25 09:15:17;;;;;;;6.05;4.03;;;;;;;;;;10451194;28;20025;-64
2022/11/25 09:20:18;;;;;;;5.95;4.32;;;;;;;;;;10450488;28;20025;-64
2022/11/25 09:25:20;;;;;;;5.28;4.20;;;;;;;;;;10450246;28;20039;-64
2022/11/25 09:30:22;;;;;;;6.57;3.85;;;;;;;;;;10432591;28;20025;-64
2022/11/25 09:35:24;;;;;;;9.05;4.43;;;;;;;;;;10450724;28;20087;-64
2022/11/25 09:40:40;;;;;;;5.10;3.75;;;;;;;;;;10449942;28;20025;-64
2022/11/25 09:51:53;;;;;;;5.03;3.72;;;;;;;;;;10449918;28;20029;-64
2022/11/25 09:57:14;;;;;;;6.50;3.72;;;;;;;;;;10449542;28;20183;-64
2022/11/25 10:02:43;;;;;;;7.22;3.95;;;;;;;;;;10431750;28;20056;-64
2022/11/25 10:07:51;;;;;;;6.82;3.58;;;;;;;;;;10415222;28;20070;-64
2022/11/25 10:12:56;;;;;;;4.97;3.60;;;;;;;;;;10449071;28;20060;-64
2022/11/25 10:18:03;;;;;;;6.85;3.53;;;;;;;;;;10431631;28;20512;-63
2022/11/25 10:23:21;;;;;;;5.25;3.50;;;;;;;;;;10431692;28;20056;-64
2022/11/25 10:28:29;;;;;;;5.35;3.90;;;;;;;;;;10448234;28;20026;-64
2022/11/25 10:34:04;;;;;;;4.87;3.50;;;;;;;;;;10453741;28;20036;-64
2022/11/25 10:39:23;;;;;;;6.55;3.97;;;;;;;;;;10421835;28;20489;-64
2022/11/25 10:44:32;;;;;;;4.85;3.63;;;;;;;;;;10439005;28;20021;-64
2022/11/25 10:49:52;;;;;;;4.95;3.58;;;;;;;;;;10439176;28;20075;-64
2022/11/25 10:55:07;;;;;;;8.60;3.97;;;;;;;;;;10440415;28;20025;-63
2022/11/25 11:00:34;;;;;;;7.90;3.78;;;;;;;;;;10455459;28;20095;-63
2022/11/25 11:05:45;;;;;;;6.55;3.53;;;;;;;;;;10454800;28;20504;-64
2022/11/25 11:11:06;;;;;;;3.95;3.05;;;;;;;;;;10454243;28;20515;-64
2022/11/25 11:16:32;;;;;;;4.22;3.40;;;;;;;;;;10455717;28;20388;-64
2022/11/25 11:21:40;;;;;;;6.22;3.45;;;;;;;;;;10438025;28;20025;-64
2022/11/25 11:26:41;;;;;;;5.43;3.63;;;;;;;;;;10437386;28;20052;-63
2022/11/25 11:31:59;;;;;;;7.38;3.75;;;;;;;;;;10454332;28;20025;-64
2022/11/25 11:37:28;;;;;;;5.40;3.30;;;;;;;;;;10437508;28;20033;-65
2022/11/25 11:42:49;;;;;;;7.10;3.30;;;;;;;;;;10454194;28;20037;-63
2022/11/25 11:48:10;;;;;;;8.07;3.67;;;;;;;;;;10431970;28;20037;-63
2022/11/25 11:53:53;;;;;;;4.30;3.50;;;;;;;;;;10437502;28;20510;-64
2022/11/25 11:59:19;;;;;;;3.72;3.00;;;;;;;;;;10437880;28;20049;-65
2022/11/25 12:04:28;;;;;;;4.30;3.30;;;;;;;;;;10437344;28;20033;-64
2022/11/25 12:09:35;;;;;;;5.63;3.15;;;;;;;;;;10435415;28;20496;-63
2022/11/25 12:14:56;;;;;;;4.65;3.25;;;;;;;;;;10435429;28;20304;-65
2022/11/25 12:20:18;;;;;;;3.58;3.10;;;;;;;;;;10452088;28;20124;-64
2022/11/25 12:25:24;;;;;;;4.15;3.13;;;;;;;;;;10436343;28;20048;-63
2022/11/25 12:30:34;;;;;;;9.70;3.40;;;;;;;;;;10451923;28;20100;-64
2022/11/25 12:36:07;;;;;;;3.80;3.00;;;;;;;;;;10452026;28;20029;-64
2022/11/25 12:41:41;;;;;;;5.68;3.45;;;;;;;;;;10434561;28;20504;-63
2022/11/25 12:46:48;;;;;;;6.43;3.38;;;;;;;;;;10451406;28;20032;-62
2022/11/25 12:52:15;;;;;;;5.00;3.20;;;;;;;;;;10450654;28;20499;-62
2022/11/25 12:57:47;;;;;;;4.80;3.08;;;;;;;;;;10450691;28;20188;-63
2022/11/25 13:03:18;;;;;;;4.72;2.78;;;;;;;;;;10450396;28;20155;-62
2022/11/25 13:09:06;;;;;;;6.40;3.25;;;;;;;;;;10450202;28;20408;-64
2022/11/25 13:14:45;;;;;;;3.90;3.00;;;;;;;;;;10449394;28;20057;-63
2022/11/25 13:19:46;;;;;;;14.25;3.28;;;;;;;;;;10426722;28;20057;-61
2022/11/25 13:24:47;;;;;;;5.28;3.15;;;;;;;;;;10430966;28;20044;-62
2022/11/25 13:29:53;;;;;;;3.75;2.83;;;;;;;;;;10448530;28;20035;-63
2022/11/25 13:35:54;;;;;;;5.10;3.10;;;;;;;;;;10421818;28;20052;-60
2022/11/25 13:41:20;;;;;;;3.17;2.70;;;;;;;;;;10432875;28;20129;-62
2022/11/25 13:46:48;;;;;;;4.47;2.47;;;;;;;;;;10434981;28;20029;-60
2022/11/25 13:51:52;;;;;;;5.97;3.00;;;;;;;;;;10449280;28;20021;-60
2022/11/25 13:57:18;;;;;;;8.60;2.60;;;;;;;;;;10447792;28;20033;-61
2022/11/25 14:02:28;;;;;;;6.45;3.20;;;;;;;;;;10430586;28;20079;-61
2022/11/25 14:07:43;;;;;;;10.85;2.83;;;;;;;;;;10453003;28;20380;-61
2022/11/25 14:13:05;;;;;;;5.38;2.95;;;;;;;;;;10455752;28;20025;-61
2022/11/25 14:18:41;;;;;;;6.68;3.35;;;;;;;;;;10457033;28;20029;-62
2022/11/25 14:24:03;;;;;;;4.50;2.65;;;;;;;;;;10456195;28;20037;-63
2022/11/25 14:29:11;;;;;;;4.30;2.50;;;;;;;;;;10457615;28;20025;-62
2022/11/25 14:34:38;;;;;;;5.88;3.33;;;;;;;;;;10439289;28;20027;-62
2022/11/25 14:40:02;;;;;;;3.65;2.70;;;;;;;;;;10457184;28;20033;-62
2022/11/25 14:45:32;;;;;;;6.43;2.85;;;;;;;;;;10456344;28;20380;-62
2022/11/25 14:50:32;;;;;;;4.60;2.75;;;;;;;;;;10456863;28;20051;-64
2022/11/25 14:55:34;;;;;;;8.55;3.17;;;;;;;;;;10456041;28;20029;-62
2022/11/25 15:00:59;;;;;;;5.95;2.75;;;;;;;;;;10426497;28;20032;-62
2022/11/25 15:06:04;;;;;;;9.50;3.20;;;;;;;;;;10415275;28;20029;-62
2022/11/25 15:11:15;;;;;;;5.15;2.78;;;;;;;;;;10427800;28;20048;-62
2022/11/25 15:16:22;;;;;;;9.52;3.00;;;;;;;;;;10398396;28;20057;-62
2022/11/25 15:21:32;;;;;;;9.02;2.90;;;;;;;;;;10437497;28;20318;-65
2022/11/25 15:26:35;;;;;;;4.45;2.50;;;;;;;;;;10455204;28;20104;-63
2022/11/25 15:31:37;;;;;;;7.40;2.70;;;;;;;;;;10454340;28;20100;-64
2022/11/25 15:36:38;;;;;;;4.07;2.53;;;;;;;;;;10436898;28;20025;-64
2022/11/25 15:41:42;;;;;;;5.60;2.88;;;;;;;;;;10436761;28;20418;-65
2022/11/25 15:46:56;;;;;;;3.33;2.33;;;;;;;;;;10454224;28;20346;-64
2022/11/25 15:52:15;;;;;;;7.18;2.63;;;;;;;;;;10437277;28;20368;-65
2022/11/25 15:57:21;;;;;;;;;;;;;;;;;;10436773;28;20029;-64
2022/11/25 16:02:47;;;;;;;5.30;3.35;;;;;;;;;;10453709;28;20402;-64
2022/11/25 16:07:54;;;;;;;5.25;2.72;;;;;;;;;;10395545;28;20298;-65
2022/11/25 16:13:24;;;;;;;3.20;2.60;;;;;;;;;;10413689;28;20396;-64
2022/11/25 16:18:31;;;;;;;3.40;2.38;;;;;;;;;;10393165;28;20427;-64
2022/11/25 16:23:37;;;;;;;6.57;2.72;;;;;;;;;;10453540;28;20083;-64
2022/11/25 16:28:52;;;;;;;7.18;2.85;;;;;;;;;;10451875;28;20064;-64
2022/11/25 16:34:08;;;;;;;6.03;2.60;;;;;;;;;;10435149;28;20033;-64
2022/11/25 16:39:09;;;;;;;3.70;2.90;;;;;;;;;;10435998;28;20419;-65
2022/11/25 16:44:21;;;;;;;4.75;3.50;;;;;;;;;;10451463;28;20040;-66
2022/11/25 16:49:22;;;;;;;5.47;3.40;;;;;;;;;;10416649;28;20029;-65
2022/11/25 16:54:23;;;;;;;4.05;3.08;;;;;;;;;;10451641;28;20024;-66
2022/11/25 16:59:40;;;;;;;5.07;2.92;;;;;;;;;;10451793;28;20192;-66
2022/11/25 17:04:40;;;;;;;6.35;3.10;;;;;;;;;;10431162;28;20039;-66
2022/11/25 17:09:43;;;;;;;6.32;2.97;;;;;;;;;;10449918;28;20041;-66
2022/11/25 22:50:49;;;;;;;7.93;4.57;;;;;;;;;;4696237;28;20049;-59
2022/11/25 22:55:49;;;;;;;5.70;4.13;;;;;;;;;;10414307;28;20030;-59
2022/11/25 23:00:50;;;;;;;15.85;4.22;;;;;;;;;;10414489;28;20385;-59
2022/11/25 23:05:53;;;;;;;7.30;3.90;;;;;;;;;;10413955;28;20040;-59
2022/11/25 23:10:55;;;;;;;6.65;4.00;;;;;;;;;;10415213;28;20048;-60
2022/11/25 23:16:00;;;;;;;6.28;4.22;;;;;;;;;;10414705;28;20523;-59
2022/11/25 23:21:01;;;;;;;8.30;4.90;;;;;;;;;;10414351;28;20630;-60
2022/11/25 23:26:01;;;;;;;8.35;4.13;;;;;;;;;;10414386;28;20032;-60
2022/11/25 23:31:03;;;;;;;5.13;3.80;;;;;;;;;;10414003;28;20033;-60
2022/11/25 23:36:19;;;;;;;4.43;3.60;;;;;;;;;;10414461;28;20076;-60
2022/11/25 23:41:33;;;;;;;5.93;3.70;;;;;;;;;;10413194;28;20057;-59
2022/11/25 23:46:35;;;;;;;10.35;4.18;;;;;;;;;;10413627;28;20057;-59
2022/11/25 23:51:36;;;;;;;14.05;4.72;;;;;;;;;;10411743;28;20128;-61
2022/11/25 23:56:36;;;;;;;10.85;4.13;;;;;;;;;;10413727;28;20056;-59
